El Monte, CA (91734)

10:24 AM PDT on September 20, 2014 (GMT -0700)
South Arcadia - Rio Hondo Prep | Change Station
CLOSE
Current Station
Personal Weather Station
Location: Arcadia, CA
Elevation: 338 ft
Nearby Weather Stations

Elev 338 ft 34.10 °N, 118.02 °W | Updated 3 seconds ago

Overcast
Overcast
72.1 °F
Feels Like 74 °F
N
1.1
Wind Variable Wind from SW
Gusts 2.5 mph

Today
High -- | Low -- °F
--% Chance of Precip.
Yesterday
High -- | Low -- °F
Precip. -- in
6:38 AM 6:51 PM
Waning Crescent, 11% visible
Pressure 29.94 in
Visibility 10.0 miles
Clouds Overcast 2100 ft
Heat Index 74 °F
Dew Point 64 °F
Humidity 74%
Rainfall 0.00 in
Snow Depth 0 in , 1 in , 0 in
UV 1 out of 12
Pollen 6.80 out of 12
Ozone Good
Flu Activity Not available.
METAR KCQT 201647Z AUTO 00000KT 10SM OVC021 22/16 A2995 RMK AO2 SLP139 T02170161

More Conditions Fewer Conditions

Pressure 29.94 in
Visibility 10.0 miles
Clouds Overcast 2100 ft
Heat Index 74 °F
Dew Point 64 °F
Humidity 74%
Rainfall 0.00 in
Snow Depth 0 in , 1 in , 0 in
UV 1 out of 12
Pollen 6.80 out of 12
Ozone Good
Flu Activity Not available.
METAR KCQT 201647Z AUTO 00000KT 10SM OVC021 22/16 A2995 RMK AO2 SLP139 T02170161

More Conditions Fewer Conditions

10-Day Weather Forecast

Almanac

Astronomy

Sep. 20, 2014 Rise Set
Actual Time 6:38 AM PDT 6:51 PM PDT
Civil Twilight 6:13 AM PDT 7:16 PM PDT
Nautical Twilight 5:44 AM PDT 7:45 PM PDT
Astronomical Twilight 5:15 AM PDT 8:15 PM PDT
Moon 3:29 AM PDT 4:51 PM PDT
Length of Visible Light 13h 02m
Length of Day
12h 12m
Tomorrow will be 2m 6s shorter.
Waning Crescent, 11% of the Moon is Illuminated
Today
Waning Crescent
Sep 24
New
Oct 1
First Quarter
Oct 8
Full
Oct 15
Last Quarter

Today's Extremes

State Highs State Lows

Community

WunderPhotos

Upload Photos

1,754,906 photos uploaded!

Nearby

Air Quality

  Air Quality AQ Index Pollutant
Yesterday Good
OZONE
Current Good
OZONE
Sunday Good
OZONE
Sunday Good
PM10
Sunday Good
CO
Sunday Good
NO2

Snow Depth

Station Depth Elevation
Forestdale Creek 0 in 8029 ft
Spratt Creek 1 in 6200 ft
Crowder Flat 0 in 5100 ft
Tahoe City Cross 0 in 6750 ft
Summit Meadow 1 in 9122 ft

Earthquake Activity

City Distance Mag. Time & Date
Inyokern, California 137 miles 3.1 5:33 PM PDT
2014-09-19
Aguanga, California 82 miles 2.5 1:38 AM PDT
2014-09-19
Corcoran, California 165 miles 2.9 3:59 PM PDT
2014-09-18
Minimum magnitude displayed is 2.5.

Coastal Water Temperatures

Place Temperature
Santa Monica Pier 66.9 °F
Los Angeles, CA 66.9 °F
La Jolla, CA 71.1 °F

Nearby Weather Stations